»·PEaware :: AAL400 KPHX-KGEG

AAL400 :: KPHX-KGEG

FLIGHT INFORMATION

Flight Status: Arrived
Operator:
American Airlines
More flights by this operator :: More flights under this callsign
Pilot: Robert Y. (11885)
Aircraft: BOEING 717-200
(B712)
More flights by this aircraft type
Origin: KPHX Phoenix Sky Harbor Intl
United States
Destination: KGEG Spokane Intl
United States
More flights between these airports :: More routes between these airports
Route: QUAKY1 GCN WINEN CRITO BROPH KU90K ATOXE
File this flight plan on PilotEdge
Remarks: http; / / aavirtual.net AAL9314 Robert Yunque
Altitude:
(Current/Filed)
30,000ft
Speed:
(Current/Filed)
287kts
Departed: 13-Jul-18 06:02 PM
Arrived: 13-Jul-18 08:21 PM
Distance/Time
Traveled:
887nm/2:19
Distance/Time
To Go:
Arrived

Flight Plot

Page will automatically refresh every two minutes.

Flight plan parsing failed; only flown route is shown


Map Options




Map Legend


Flown Route
Filed Route
Departure Airport
Arrival Airport
Navaid (VOR, NDB)
Fix

Horizontal Profiles

Position Reports

Time Latitude Longitude Heading Altitude Ground
Speed
13-Jul-18 17:20 33.438234 -111.998726 230 1143ft 0kts
13-Jul-18 17:21 33.438234 -111.998726 230 1143ft 0kts
13-Jul-18 17:22 33.438234 -111.998726 230 1143ft 0kts
13-Jul-18 17:23 33.438234 -111.998726 230 1143ft 0kts
13-Jul-18 17:24 33.438234 -111.998726 230 1143ft 0kts
13-Jul-18 17:25 33.438234 -111.998726 230 1143ft 0kts
13-Jul-18 17:26 33.438234 -111.998726 230 1143ft 0kts
13-Jul-18 17:27 33.438234 -111.998726 230 1143ft 0kts
13-Jul-18 17:28 33.438234 -111.998726 230 1143ft 0kts
13-Jul-18 17:29 33.438234 -111.998726 230 1143ft 0kts
13-Jul-18 17:30 33.438234 -111.998726 230 1143ft 0kts
13-Jul-18 17:31 33.438234 -111.998726 230 1143ft 0kts
13-Jul-18 17:32 33.438234 -111.998726 230 1143ft 0kts
13-Jul-18 17:33 33.438234 -111.998726 230 1143ft 0kts
13-Jul-18 17:34 33.438234 -111.998726 230 1143ft 0kts
13-Jul-18 17:35 33.438234 -111.998726 230 1143ft 0kts
13-Jul-18 17:36 33.438234 -111.998726 230 1143ft 0kts
13-Jul-18 17:37 33.438234 -111.998726 230 1143ft 0kts
13-Jul-18 17:38 33.438234 -111.998726 230 1143ft 0kts
13-Jul-18 17:39 33.438251 -111.998702 230 1143ft 1kts
13-Jul-18 17:40 33.438667 -111.998100 230 1143ft 3kts
13-Jul-18 17:41 33.438732 -111.998006 229 1143ft 0kts
13-Jul-18 17:42 33.438732 -111.998006 229 1143ft 0kts
13-Jul-18 17:43 33.438732 -111.998007 229 1143ft 0kts
13-Jul-18 17:44 33.438731 -111.998008 229 1143ft 0kts
13-Jul-18 17:45 33.438731 -111.998008 229 1143ft 0kts
13-Jul-18 17:46 33.438730 -111.998009 229 1143ft 0kts
13-Jul-18 17:47 33.438730 -111.998010 229 1143ft 0kts
13-Jul-18 17:48 33.438729 -111.998010 229 1143ft 0kts
13-Jul-18 17:49 33.438729 -111.998011 229 1143ft 0kts
13-Jul-18 17:50 33.438728 -111.998011 229 1143ft 0kts
13-Jul-18 17:51 33.438710 -111.998039 232 1143ft 1kts
13-Jul-18 17:52 33.438283 -111.997818 7 1143ft 0kts
13-Jul-18 17:53 33.438284 -111.997818 7 1143ft 0kts
13-Jul-18 17:54 33.438285 -111.997818 7 1143ft 0kts
13-Jul-18 17:55 33.438285 -111.997818 7 1143ft 0kts
13-Jul-18 17:56 33.438286 -111.997818 7 1143ft 0kts
13-Jul-18 17:57 33.438287 -111.997818 7 1143ft 0kts
13-Jul-18 17:58 33.439728 -111.997741 87 1143ft 10kts
13-Jul-18 17:59 33.439705 -111.995251 88 1143ft 8kts
13-Jul-18 18:00 33.439710 -111.991760 90 1143ft 9kts
13-Jul-18 18:01 33.439783 -111.991359 66 1143ft 0kts
13-Jul-18 18:02 33.440791 -111.991257 283 1143ft 7kts
13-Jul-18 18:03 33.440822 -112.012209 272 1144ft 165kts
13-Jul-18 18:04 33.441355 -112.072128 272 3745ft 167kts
13-Jul-18 18:05 33.443315 -112.134287 272 4545ft 215kts
13-Jul-18 18:06 33.481107 -112.193381 346 6349ft 256kts
13-Jul-18 18:07 33.554835 -112.188720 11 8680ft 288kts
13-Jul-18 18:08 33.629525 -112.152198 42 11481ft 298kts
13-Jul-18 18:09 33.690609 -112.075458 46 13025ft 357kts
13-Jul-18 18:10 33.770749 -111.997886 17 14929ft 383kts
13-Jul-18 18:11 33.877900 -111.975976 9 17168ft 398kts
13-Jul-18 18:12 33.989645 -111.954778 9 19255ft 412kts
13-Jul-18 18:13 34.085375 -111.937773 4 20804ft 424kts
13-Jul-18 18:14 34.204760 -111.948006 355 22541ft 437kts
13-Jul-18 18:15 34.327698 -111.961597 355 24088ft 448kts
13-Jul-18 18:16 34.453137 -111.975528 355 25490ft 458kts
13-Jul-18 18:17 34.580975 -111.989620 355 26785ft 465kts
13-Jul-18 18:18 34.709882 -112.003922 355 28417ft 462kts
13-Jul-18 18:19 34.837402 -112.018195 355 30047ft 459kts
13-Jul-18 18:20 34.963984 -112.032466 355 30400ft 455kts
13-Jul-18 18:21 35.090193 -112.046738 355 30416ft 454kts
13-Jul-18 18:22 35.215866 -112.060993 355 30422ft 453kts
13-Jul-18 18:23 35.341497 -112.075298 355 30406ft 454kts
13-Jul-18 18:24 35.467830 -112.088161 356 30406ft 454kts
13-Jul-18 18:25 35.593589 -112.101897 355 30406ft 454kts
13-Jul-18 18:26 35.719675 -112.117048 355 30407ft 454kts
13-Jul-18 18:27 35.845285 -112.132154 355 30412ft 454kts
13-Jul-18 18:28 35.969882 -112.154226 339 30403ft 455kts
13-Jul-18 18:29 36.082276 -112.227504 332 30412ft 456kts
13-Jul-18 18:30 36.193720 -112.302113 332 30395ft 456kts
13-Jul-18 18:31 36.305182 -112.377012 332 30369ft 456kts
13-Jul-18 18:32 36.416899 -112.452327 331 30337ft 456kts
13-Jul-18 18:33 36.528165 -112.527586 331 30312ft 456kts
13-Jul-18 18:34 36.639761 -112.603319 331 30317ft 456kts
13-Jul-18 18:35 36.751008 -112.679065 331 30332ft 456kts
13-Jul-18 18:36 36.862304 -112.755099 331 30320ft 457kts
13-Jul-18 18:37 36.973998 -112.831660 331 30312ft 457kts
13-Jul-18 18:38 37.085256 -112.908180 331 30312ft 456kts
13-Jul-18 18:39 37.196584 -112.985008 331 30320ft 457kts
13-Jul-18 18:40 37.308304 -113.062368 330 30293ft 457kts
13-Jul-18 18:41 37.419662 -113.139743 330 30286ft 458kts
13-Jul-18 18:42 37.531424 -113.217664 330 30309ft 458kts
13-Jul-18 18:43 37.642973 -113.295707 330 30326ft 459kts
13-Jul-18 18:44 37.754526 -113.374022 330 30325ft 460kts
13-Jul-18 18:45 37.866507 -113.452911 330 30314ft 460kts
13-Jul-18 18:46 37.977567 -113.533300 328 30301ft 460kts
13-Jul-18 18:47 38.087467 -113.616226 328 30304ft 460kts
13-Jul-18 18:48 38.197925 -113.699771 328 30314ft 461kts
13-Jul-18 18:49 38.307930 -113.783272 328 30309ft 461kts
13-Jul-18 18:50 38.418171 -113.867253 328 30306ft 460kts
13-Jul-18 18:51 38.527844 -113.951101 328 30306ft 459kts
13-Jul-18 18:52 38.637305 -114.035087 328 30309ft 460kts
13-Jul-18 18:53 38.747056 -114.119602 328 30317ft 459kts
13-Jul-18 18:54 38.856205 -114.203956 328 30324ft 458kts
13-Jul-18 18:55 38.965370 -114.288631 328 30327ft 458kts
13-Jul-18 18:56 39.074644 -114.373699 327 30333ft 458kts
13-Jul-18 18:57 39.183434 -114.458699 327 30340ft 457kts
13-Jul-18 18:58 39.293709 -114.541165 337 30341ft 459kts
13-Jul-18 18:59 39.420385 -114.561186 355 30349ft 461kts
13-Jul-18 19:00 39.548293 -114.572758 355 30342ft 461kts
13-Jul-18 19:01 39.676548 -114.584459 355 30321ft 461kts
13-Jul-18 19:02 39.804345 -114.596162 355 30296ft 461kts
13-Jul-18 19:03 39.932126 -114.607909 355 30268ft 461kts
13-Jul-18 19:04 40.060348 -114.619739 355 30247ft 460kts
13-Jul-18 19:05 40.187934 -114.631556 355 30223ft 460kts
13-Jul-18 19:06 40.315493 -114.643415 355 30202ft 460kts
13-Jul-18 19:07 40.443532 -114.655364 355 30187ft 461kts
13-Jul-18 19:08 40.571230 -114.667326 355 30176ft 460kts
13-Jul-18 19:09 40.699201 -114.679360 355 30168ft 460kts
13-Jul-18 19:10 40.826733 -114.691399 355 30166ft 459kts
13-Jul-18 19:11 40.954095 -114.703468 355 30151ft 459kts
13-Jul-18 19:12 41.081795 -114.715616 354 30153ft 459kts
13-Jul-18 19:13 41.208936 -114.727758 354 30154ft 458kts
13-Jul-18 19:14 41.335982 -114.739939 354 30155ft 458kts
13-Jul-18 19:15 41.463292 -114.752192 354 30154ft 457kts
13-Jul-18 19:16 41.590256 -114.764461 354 30152ft 458kts
13-Jul-18 19:17 41.717598 -114.776815 354 30150ft 458kts
13-Jul-18 19:18 41.844424 -114.789167 354 30149ft 457kts
13-Jul-18 19:19 41.971264 -114.801570 354 30154ft 457kts
13-Jul-18 19:20 42.098208 -114.814032 354 30154ft 455kts
13-Jul-18 19:21 42.224390 -114.826470 354 30156ft 455kts
13-Jul-18 19:22 42.350592 -114.838959 354 30158ft 455kts
13-Jul-18 19:23 42.477098 -114.851528 354 30158ft 454kts
13-Jul-18 19:24 42.603110 -114.864096 354 30156ft 454kts
13-Jul-18 19:25 42.728499 -114.880569 344 30143ft 451kts
13-Jul-18 19:26 42.847117 -114.935874 338 30152ft 449kts
13-Jul-18 19:27 42.964940 -114.992046 338 30149ft 449kts
13-Jul-18 19:28 43.082958 -115.048567 338 30138ft 448kts
13-Jul-18 19:29 43.200495 -115.105090 338 30130ft 448kts
13-Jul-18 19:30 43.317839 -115.161749 338 30126ft 447kts
13-Jul-18 19:31 43.435507 -115.218799 338 30132ft 447kts
13-Jul-18 19:32 43.552600 -115.275805 338 30160ft 447kts
13-Jul-18 19:33 43.670034 -115.333213 338 30215ft 446kts
13-Jul-18 19:34 43.786973 -115.390618 337 30240ft 446kts
13-Jul-18 19:35 43.903841 -115.448226 337 30237ft 446kts
13-Jul-18 19:36 44.021041 -115.506236 337 30246ft 445kts
13-Jul-18 19:37 44.137303 -115.564032 337 30250ft 444kts
13-Jul-18 19:38 44.253577 -115.622072 337 30238ft 444kts
13-Jul-18 19:39 44.370138 -115.680500 337 30231ft 444kts
13-Jul-18 19:40 44.486223 -115.738937 337 30224ft 443kts
13-Jul-18 19:41 44.601987 -115.797456 337 30215ft 442kts
13-Jul-18 19:42 44.717855 -115.856279 336 30212ft 441kts
13-Jul-18 19:43 44.833105 -115.915037 336 30213ft 440kts
13-Jul-18 19:44 44.948367 -115.974039 336 30214ft 439kts
13-Jul-18 19:45 45.061362 -116.038697 332 30212ft 439kts
13-Jul-18 19:46 45.172856 -116.108483 332 30201ft 438kts
13-Jul-18 19:47 45.284372 -116.178458 331 30172ft 436kts
13-Jul-18 19:48 45.395176 -116.248290 331 30146ft 436kts
13-Jul-18 19:49 45.507897 -116.319635 331 30126ft 444kts
13-Jul-18 19:50 45.615719 -116.388091 331 29567ft 404kts
13-Jul-18 19:51 45.716575 -116.452496 331 28020ft 392kts
13-Jul-18 19:52 45.816483 -116.516535 332 25983ft 393kts
13-Jul-18 19:53 45.916098 -116.580617 332 23892ft 392kts
13-Jul-18 19:54 46.015112 -116.644552 332 21799ft 388kts
13-Jul-18 19:55 46.113168 -116.708134 332 19697ft 382kts
13-Jul-18 19:56 46.209081 -116.770555 332 17606ft 374kts
13-Jul-18 19:57 46.302758 -116.831758 332 15514ft 365kts
13-Jul-18 19:58 46.394549 -116.891951 332 13410ft 357kts
13-Jul-18 19:59 46.483952 -116.950793 332 11314ft 349kts
13-Jul-18 20:00 46.565139 -117.004339 332 9616ft 299kts
13-Jul-18 20:01 46.638074 -117.052684 332 10031ft 285kts
13-Jul-18 20:02 46.710018 -117.100502 332 10051ft 284kts
13-Jul-18 20:03 46.782190 -117.148605 332 10060ft 284kts
13-Jul-18 20:04 46.854066 -117.196661 332 10054ft 284kts
13-Jul-18 20:05 46.926198 -117.245028 332 10055ft 284kts
13-Jul-18 20:06 46.998281 -117.293499 331 10048ft 284kts
13-Jul-18 20:07 47.070055 -117.341916 331 10034ft 284kts
13-Jul-18 20:08 47.141525 -117.390258 331 8802ft 281kts
13-Jul-18 20:09 47.211426 -117.437658 331 8013ft 268kts
13-Jul-18 20:10 47.275246 -117.481002 331 6066ft 230kts
13-Jul-18 20:11 47.335830 -117.487185 14 5038ft 231kts
13-Jul-18 20:12 47.396141 -117.460152 14 4990ft 227kts
13-Jul-18 20:13 47.451468 -117.420840 43 5020ft 229kts
13-Jul-18 20:14 47.495759 -117.353381 45 4994ft 227kts
13-Jul-18 20:15 47.539642 -117.286534 45 4990ft 218kts
13-Jul-18 20:16 47.590644 -117.252365 341 5031ft 221kts
13-Jul-18 20:17 47.645154 -117.285787 329 4723ft 201kts
13-Jul-18 20:18 47.676384 -117.349017 287 3906ft 196kts
13-Jul-18 20:19 47.686663 -117.427663 262 3830ft 195kts
13-Jul-18 20:20 47.656433 -117.479712 227 3088ft 150kts
13-Jul-18 20:21 47.628034 -117.523120 223 2363ft 134kts
13-Jul-18 20:22 47.618079 -117.538017 225 2358ft 18kts
13-Jul-18 20:23 47.617029 -117.532944 82 2358ft 9kts
13-Jul-18 20:24 47.620232 -117.532358 348 2358ft 0kts
13-Jul-18 20:25 47.621827 -117.532471 3 2358ft 19kts
13-Jul-18 20:26 47.623198 -117.535832 226 2358ft 14kts
13-Jul-18 20:27 47.623503 -117.539347 349 2358ft 0kts
13-Jul-18 20:28 47.623504 -117.539348 349 2358ft 0kts
13-Jul-18 20:29 47.623504 -117.539348 349 2358ft 0kts
13-Jul-18 20:30 47.623504 -117.539348 349 2358ft 0kts
13-Jul-18 20:31 47.623504 -117.539348 349 2358ft 0kts
13-Jul-18 20:32 47.623504 -117.539348 349 2358ft 0kts

Navigation Log

Ident Type
Flight plan parsing failed, navigation log unavailable